sensor_id;sensor_type;location;lat;lon;timestamp;temperature;humidity
51486;DHT22;37565;51.352;6.412;2023-04-03T18:52:58;20.00;87.30
51486;DHT22;37565;51.352;6.412;2023-04-03T18:55:26;18.40;87.20
51486;DHT22;37565;51.352;6.412;2023-04-03T18:57:54;18.40;86.90
51486;DHT22;37565;51.352;6.412;2023-04-03T19:00:22;18.40;87.80
51486;DHT22;37565;51.352;6.412;2023-04-03T19:02:50;18.40;87.50
51486;DHT22;37565;51.352;6.412;2023-04-03T19:05:19;18.50;88.00
51486;DHT22;37565;51.352;6.412;2023-04-03T19:07:48;18.50;87.60
51486;DHT22;37565;51.352;6.412;2023-04-03T19:10:17;18.50;87.80
51486;DHT22;37565;51.352;6.412;2023-04-03T19:12:46;18.60;88.30
51486;DHT22;37565;51.352;6.412;2023-04-03T19:15:17;18.60;88.00
51486;DHT22;37565;51.352;6.412;2023-04-03T19:17:45;18.50;87.80
51486;DHT22;37565;51.352;6.412;2023-04-03T19:20:13;18.50;88.00
51486;DHT22;37565;51.352;6.412;2023-04-03T19:22:42;18.60;88.40
51486;DHT22;37565;51.352;6.412;2023-04-03T19:25:10;18.60;88.40
51486;DHT22;37565;51.352;6.412;2023-04-03T19:27:40;18.50;88.00
51486;DHT22;37565;51.352;6.412;2023-04-03T19:30:09;18.50;88.50
51486;DHT22;37565;51.352;6.412;2023-04-03T19:32:38;18.50;88.50
51486;DHT22;37565;51.352;6.412;2023-04-03T19:35:07;18.50;88.50
51486;DHT22;37565;51.352;6.412;2023-04-03T19:37:35;18.50;88.90
51486;DHT22;37565;51.352;6.412;2023-04-03T19:40:04;18.50;89.00
51486;DHT22;37565;51.352;6.412;2023-04-03T19:42:32;18.50;89.00
51486;DHT22;37565;51.352;6.412;2023-04-03T19:45:04;18.50;89.00
51486;DHT22;37565;51.352;6.412;2023-04-03T19:47:33;18.50;89.20
51486;DHT22;37565;51.352;6.412;2023-04-03T19:50:02;18.50;88.40
51486;DHT22;37565;51.352;6.412;2023-04-03T19:52:30;18.50;89.00
51486;DHT22;37565;51.352;6.412;2023-04-03T19:54:58;18.50;89.00
51486;DHT22;37565;51.352;6.412;2023-04-03T19:57:26;18.50;89.20
51486;DHT22;37565;51.352;6.412;2023-04-03T19:59:54;18.50;89.20
51486;DHT22;37565;51.352;6.412;2023-04-03T20:02:23;18.50;89.50
51486;DHT22;37565;51.352;6.412;2023-04-03T20:04:51;18.50;89.60
51486;DHT22;37565;51.352;6.412;2023-04-03T20:07:19;18.50;89.80
51486;DHT22;37565;51.352;6.412;2023-04-03T20:09:47;18.60;90.00
51486;DHT22;37565;51.352;6.412;2023-04-03T20:12:15;18.50;89.90
51486;DHT22;37565;51.352;6.412;2023-04-03T20:14:44;18.50;90.00
51486;DHT22;37565;51.352;6.412;2023-04-03T20:17:12;18.60;90.20
51486;DHT22;37565;51.352;6.412;2023-04-03T20:19:42;18.60;90.20
51486;DHT22;37565;51.352;6.412;2023-04-03T20:22:10;18.60;90.20
51486;DHT22;37565;51.352;6.412;2023-04-03T20:24:37;18.60;90.30
51486;DHT22;37565;51.352;6.412;2023-04-03T20:27:05;18.60;90.40
51486;DHT22;37565;51.352;6.412;2023-04-03T20:29:34;18.60;90.40
51486;DHT22;37565;51.352;6.412;2023-04-03T20:32:02;18.60;90.30
51486;DHT22;37565;51.352;6.412;2023-04-03T20:34:33;18.60;90.50
51486;DHT22;37565;51.352;6.412;2023-04-03T20:37:02;18.60;90.50
51486;DHT22;37565;51.352;6.412;2023-04-03T20:39:31;18.60;90.60
51486;DHT22;37565;51.352;6.412;2023-04-03T20:41:59;18.60;90.60
51486;DHT22;37565;51.352;6.412;2023-04-03T20:44:29;18.60;90.60
51486;DHT22;37565;51.352;6.412;2023-04-03T20:46:57;18.60;90.70
51486;DHT22;37565;51.352;6.412;2023-04-03T20:49:25;18.60;90.60
51486;DHT22;37565;51.352;6.412;2023-04-03T20:51:53;18.50;90.60
51486;DHT22;37565;51.352;6.412;2023-04-03T20:54:22;18.50;90.60
51486;DHT22;37565;51.352;6.412;2023-04-03T20:56:50;18.50;89.90
51486;DHT22;37565;51.352;6.412;2023-04-03T20:59:18;18.50;90.90
51486;DHT22;37565;51.352;6.412;2023-04-03T21:01:48;18.50;90.90
51486;DHT22;37565;51.352;6.412;2023-04-03T21:04:20;18.60;90.90
51486;DHT22;37565;51.352;6.412;2023-04-03T21:21:20;18.50;91.20
51486;DHT22;37565;51.352;6.412;2023-04-03T21:23:51;18.60;91.30
51486;DHT22;37565;51.352;6.412;2023-04-03T21:26:20;18.50;91.30
51486;DHT22;37565;51.352;6.412;2023-04-03T21:28:49;18.50;91.40
51486;DHT22;37565;51.352;6.412;2023-04-03T21:31:18;18.50;91.40
51486;DHT22;37565;51.352;6.412;2023-04-03T21:33:48;18.50;91.30
51486;DHT22;37565;51.352;6.412;2023-04-03T21:36:16;18.50;91.40
51486;DHT22;37565;51.352;6.412;2023-04-03T21:38:43;18.50;91.70
51486;DHT22;37565;51.352;6.412;2023-04-03T21:41:13;18.50;91.30
51486;DHT22;37565;51.352;6.412;2023-04-03T21:43:41;18.50;91.40
51486;DHT22;37565;51.352;6.412;2023-04-03T21:46:08;18.50;91.40
51486;DHT22;37565;51.352;6.412;2023-04-03T21:48:36;18.50;91.30
51486;DHT22;37565;51.352;6.412;2023-04-03T21:51:06;18.50;91.40
51486;DHT22;37565;51.352;6.412;2023-04-03T21:53:34;18.50;91.40
51486;DHT22;37565;51.352;6.412;2023-04-03T21:56:02;18.50;91.30
51486;DHT22;37565;51.352;6.412;2023-04-03T21:58:31;18.50;91.30
51486;DHT22;37565;51.352;6.412;2023-04-03T22:01:07;18.50;91.30
51486;DHT22;37565;51.352;6.412;2023-04-03T22:03:36;18.50;91.20
51486;DHT22;37565;51.352;6.412;2023-04-03T22:06:05;18.50;91.20
51486;DHT22;37565;51.352;6.412;2023-04-03T22:08:33;18.50;91.30
51486;DHT22;37565;51.352;6.412;2023-04-03T22:11:02;18.50;91.30
51486;DHT22;37565;51.352;6.412;2023-04-03T22:13:30;18.50;91.30
51486;DHT22;37565;51.352;6.412;2023-04-03T22:15:59;18.50;91.40
51486;DHT22;37565;51.352;6.412;2023-04-03T22:18:27;18.50;91.50
51486;DHT22;37565;51.352;6.412;2023-04-03T22:20:55;18.50;91.30
